sensor_id;sensor_type;location;lat;lon;timestamp;pressure;altitude;pressure_sealevel;temperature
69420;BMP280;56612;52.030;113.524;2022-07-09T03:53:04;92013.41;;;27.87
69420;BMP280;56612;52.030;113.524;2022-07-09T03:56:07;92003.03;;;28.69
69420;BMP280;56612;52.030;113.524;2022-07-09T03:59:11;92010.00;;;28.23
69420;BMP280;56612;52.030;113.524;2022-07-09T04:02:14;91993.47;;;28.85
69420;BMP280;56612;52.030;113.524;2022-07-09T04:05:18;91991.34;;;29.54
69420;BMP280;56612;52.030;113.524;2022-07-09T04:08:22;91998.72;;;28.35
69420;BMP280;56612;52.030;113.524;2022-07-09T04:11:26;91992.50;;;28.71
69420;BMP280;56612;52.030;113.524;2022-07-09T04:14:29;91983.09;;;29.54
69420;BMP280;56612;52.030;113.524;2022-07-09T04:17:33;91981.03;;;29.20
69420;BMP280;56612;52.030;113.524;2022-07-09T04:20:37;91984.22;;;29.57
69420;BMP280;56612;52.030;113.524;2022-07-09T04:23:41;91975.19;;;29.33
69420;BMP280;56612;52.030;113.524;2022-07-09T04:26:44;91980.66;;;28.47
69420;BMP280;56612;52.030;113.524;2022-07-09T04:29:47;91978.47;;;28.93
69420;BMP280;56612;52.030;113.524;2022-07-09T04:32:51;91973.94;;;28.98
69420;BMP280;56612;52.030;113.524;2022-07-09T04:35:54;91968.09;;;29.02
69420;BMP280;56612;52.030;113.524;2022-07-09T04:38:58;91950.94;;;29.18
69420;BMP280;56612;52.030;113.524;2022-07-09T04:42:02;91947.72;;;28.99
69420;BMP280;56612;52.030;113.524;2022-07-09T04:45:06;91952.69;;;28.53
69420;BMP280;56612;52.030;113.524;2022-07-09T04:48:09;91944.41;;;27.74
69420;BMP280;56612;52.030;113.524;2022-07-09T04:51:13;91948.72;;;27.15
69420;BMP280;56612;52.030;113.524;2022-07-09T04:54:17;91937.44;;;26.91
69420;BMP280;56612;52.030;113.524;2022-07-09T04:57:20;91931.97;;;27.83
69420;BMP280;56612;52.030;113.524;2022-07-09T05:00:24;91918.72;;;28.39
69420;BMP280;56612;52.030;113.524;2022-07-09T05:03:28;91915.38;;;28.56
69420;BMP280;56612;52.030;113.524;2022-07-09T05:06:31;91903.53;;;28.49
69420;BMP280;56612;52.030;113.524;2022-07-09T05:09:35;91901.94;;;28.61
69420;BMP280;56612;52.030;113.524;2022-07-09T05:12:39;91898.44;;;29.78
69420;BMP280;56612;52.030;113.524;2022-07-09T05:15:43;91886.59;;;31.29
69420;BMP280;56612;52.030;113.524;2022-07-09T05:18:46;91871.53;;;32.23
69420;BMP280;56612;52.030;113.524;2022-07-09T05:21:49;91878.75;;;31.99
69420;BMP280;56612;52.030;113.524;2022-07-09T05:24:53;91879.06;;;31.88
69420;BMP280;56612;52.030;113.524;2022-07-09T05:27:57;91879.91;;;29.62
69420;BMP280;56612;52.030;113.524;2022-07-09T05:31:00;91882.19;;;28.41
69420;BMP280;56612;52.030;113.524;2022-07-09T05:34:25;91902.44;;;27.47
69420;BMP280;56612;52.030;113.524;2022-07-09T05:37:28;91927.50;;;26.28
69420;BMP280;56612;52.030;113.524;2022-07-09T05:40:31;91926.59;;;22.54
69420;BMP280;56612;52.030;113.524;2022-07-09T05:43:36;91921.66;;;20.38
69420;BMP280;56612;52.030;113.524;2022-07-09T05:46:39;91897.38;;;19.25
69420;BMP280;56612;52.030;113.524;2022-07-09T05:49:42;91891.78;;;18.96
69420;BMP280;56612;52.030;113.524;2022-07-09T05:52:47;91891.09;;;18.78
69420;BMP280;56612;52.030;113.524;2022-07-09T05:55:50;91885.06;;;18.59
69420;BMP280;56612;52.030;113.524;2022-07-09T05:58:53;91886.53;;;18.56
69420;BMP280;56612;52.030;113.524;2022-07-09T06:01:58;91902.13;;;18.37
69420;BMP280;56612;52.030;113.524;2022-07-09T06:05:21;91921.06;;;18.18
69420;BMP280;56612;52.030;113.524;2022-07-09T06:10:06;91895.38;;;18.73
69420;BMP280;56612;52.030;113.524;2022-07-09T06:14:27;91895.56;;;19.36
69420;BMP280;56612;52.030;113.524;2022-07-09T06:19:13;91876.44;;;20.03
69420;BMP280;56612;52.030;113.524;2022-07-09T06:23:34;91868.59;;;20.85
69420;BMP280;56612;52.030;113.524;2022-07-09T06:28:21;91880.69;;;20.44
69420;BMP280;56612;52.030;113.524;2022-07-09T06:33:06;91896.41;;;19.81
69420;BMP280;56612;52.030;113.524;2022-07-09T06:37:51;91944.69;;;18.93
69420;BMP280;56612;52.030;113.524;2022-07-09T06:42:12;91967.31;;;18.48
69420;BMP280;56612;52.030;113.524;2022-07-09T06:46:41;91915.81;;;18.14
69420;BMP280;56612;52.030;113.524;2022-07-09T06:51:01;91912.28;;;17.80
69420;BMP280;56612;52.030;113.524;2022-07-09T07:00:17;91931.97;;;17.77
69420;BMP280;56612;52.030;113.524;2022-07-09T07:05:02;91875.31;;;17.75
69420;BMP280;56612;52.030;113.524;2022-07-09T07:09:24;91879.28;;;17.96
69420;BMP280;56612;52.030;113.524;2022-07-09T07:13:45;91878.44;;;18.19
69420;BMP280;56612;52.030;113.524;2022-07-09T07:18:30;91908.56;;;18.08
69420;BMP280;56612;52.030;113.524;2022-07-09T07:23:15;91894.34;;;18.10
69420;BMP280;56612;52.030;113.524;2022-07-09T07:28:01;91900.47;;;18.27
69420;BMP280;56612;52.030;113.524;2022-07-09T07:32:46;91935.63;;;18.27
69420;BMP280;56612;52.030;113.524;2022-07-09T07:37:08;91983.25;;;17.99
69420;BMP280;56612;52.030;113.524;2022-07-09T07:41:54;91980.75;;;17.93
69420;BMP280;56612;52.030;113.524;2022-07-09T07:46:40;92013.56;;;17.81
69420;BMP280;56612;52.030;113.524;2022-07-09T07:55:20;92007.22;;;17.26
69420;BMP280;56612;52.030;113.524;2022-07-09T07:59:41;92008.25;;;17.15
69420;BMP280;56612;52.030;113.524;2022-07-09T08:04:26;92035.25;;;17.36
69420;BMP280;56612;52.030;113.524;2022-07-09T08:08:48;92054.31;;;17.31
69420;BMP280;56612;52.030;113.524;2022-07-09T08:13:37;92050.78;;;17.14
69420;BMP280;56612;52.030;113.524;2022-07-09T08:17:59;92032.78;;;17.50
69420;BMP280;56612;52.030;113.524;2022-07-09T08:26:07;92037.00;;;17.66
69420;BMP280;56612;52.030;113.524;2022-07-09T08:29:11;92046.84;;;17.76
69420;BMP280;56612;52.030;113.524;2022-07-09T08:32:15;92039.00;;;17.88
69420;BMP280;56612;52.030;113.524;2022-07-09T08:35:19;92025.88;;;17.97
69420;BMP280;56612;52.030;113.524;2022-07-09T08:38:22;92030.31;;;17.86
69420;BMP280;56612;52.030;113.524;2022-07-09T08:41:26;92030.53;;;17.59
69420;BMP280;56612;52.030;113.524;2022-07-09T08:44:30;92026.63;;;17.54
69420;BMP280;56612;52.030;113.524;2022-07-09T08:47:35;92022.53;;;17.76
69420;BMP280;56612;52.030;113.524;2022-07-09T08:50:40;92023.44;;;18.10
69420;BMP280;56612;52.030;113.524;2022-07-09T08:53:44;92032.53;;;18.21
69420;BMP280;56612;52.030;113.524;2022-07-09T08:56:50;92035.25;;;18.21
69420;BMP280;56612;52.030;113.524;2022-07-09T08:59:54;92032.56;;;18.19
69420;BMP280;56612;52.030;113.524;2022-07-09T09:02:58;92023.00;;;18.03
69420;BMP280;56612;52.030;113.524;2022-07-09T09:06:04;92016.13;;;18.06
69420;BMP280;56612;52.030;113.524;2022-07-09T09:09:08;92015.94;;;17.91
69420;BMP280;56612;52.030;113.524;2022-07-09T09:12:14;92027.13;;;18.00
69420;BMP280;56612;52.030;113.524;2022-07-09T09:15:17;92016.59;;;18.13
69420;BMP280;56612;52.030;113.524;2022-07-09T09:18:23;92014.31;;;18.38
69420;BMP280;56612;52.030;113.524;2022-07-09T09:21:27;92004.63;;;18.83
69420;BMP280;56612;52.030;113.524;2022-07-09T09:24:30;92007.50;;;19.31
69420;BMP280;56612;52.030;113.524;2022-07-09T09:27:33;92008.13;;;20.15
69420;BMP280;56612;52.030;113.524;2022-07-09T09:30:41;91993.81;;;21.50
69420;BMP280;56612;52.030;113.524;2022-07-09T09:33:46;91991.84;;;22.31
69420;BMP280;56612;52.030;113.524;2022-07-09T09:36:50;91985.88;;;22.79
69420;BMP280;56612;52.030;113.524;2022-07-09T09:39:54;91978.72;;;23.94
69420;BMP280;56612;52.030;113.524;2022-07-09T09:43:01;91977.53;;;25.14
69420;BMP280;56612;52.030;113.524;2022-07-09T09:46:05;91987.41;;;26.13
69420;BMP280;56612;52.030;113.524;2022-07-09T09:49:12;91981.09;;;26.55
69420;BMP280;56612;52.030;113.524;2022-07-09T09:52:19;91989.56;;;24.64
69420;BMP280;56612;52.030;113.524;2022-07-09T09:55:23;91997.72;;;23.24
69420;BMP280;56612;52.030;113.524;2022-07-09T09:58:28;92006.72;;;24.62
69420;BMP280;56612;52.030;113.524;2022-07-09T10:01:33;92005.84;;;23.49
69420;BMP280;56612;52.030;113.524;2022-07-09T10:04:37;92005.91;;;22.48
69420;BMP280;56612;52.030;113.524;2022-07-09T10:07:42;92004.41;;;22.24
69420;BMP280;56612;52.030;113.524;2022-07-09T10:10:50;92007.16;;;21.84
69420;BMP280;56612;52.030;113.524;2022-07-09T10:13:55;92000.69;;;21.35
69420;BMP280;56612;52.030;113.524;2022-07-09T10:17:16;92000.06;;;21.05
69420;BMP280;56612;52.030;113.524;2022-07-09T10:20:33;91997.81;;;20.80
69420;BMP280;56612;52.030;113.524;2022-07-09T10:23:48;91998.72;;;20.60
69420;BMP280;56612;52.030;113.524;2022-07-09T10:30:06;92011.91;;;20.22
69420;BMP280;56612;52.030;113.524;2022-07-09T10:33:33;92040.44;;;20.21
69420;BMP280;56612;52.030;113.524;2022-07-09T10:37:33;92087.56;;;19.96
69420;BMP280;56612;52.030;113.524;2022-07-09T10:42:00;92086.88;;;19.63
69420;BMP280;56612;52.030;113.524;2022-07-09T10:50:43;92058.66;;;18.85
69420;BMP280;56612;52.030;113.524;2022-07-09T10:55:29;92063.19;;;18.53
69420;BMP280;56612;52.030;113.524;2022-07-09T10:59:59;92051.31;;;18.25
69420;BMP280;56612;52.030;113.524;2022-07-09T11:08:38;92032.06;;;18.14
69420;BMP280;56612;52.030;113.524;2022-07-09T11:13:00;92035.84;;;18.02
69420;BMP280;56612;52.030;113.524;2022-07-09T11:17:55;92036.50;;;17.82
69420;BMP280;56612;52.030;113.524;2022-07-09T11:22:46;92043.22;;;17.62
69420;BMP280;56612;52.030;113.524;2022-07-09T11:27:28;92045.25;;;17.62
69420;BMP280;56612;52.030;113.524;2022-07-09T11:31:51;92066.28;;;17.80
69420;BMP280;56612;52.030;113.524;2022-07-09T11:41:01;92068.47;;;17.96
69420;BMP280;56612;52.030;113.524;2022-07-09T11:45:52;92077.84;;;17.99
69420;BMP280;56612;52.030;113.524;2022-07-09T11:50:13;92073.94;;;17.94
69420;BMP280;56612;52.030;113.524;2022-07-09T11:54:33;92083.91;;;18.00
69420;BMP280;56612;52.030;113.524;2022-07-09T11:59:28;92093.84;;;18.05
69420;BMP280;56612;52.030;113.524;2022-07-09T12:04:17;92098.78;;;17.99
69420;BMP280;56612;52.030;113.524;2022-07-09T12:09:02;92094.19;;;17.95
69420;BMP280;56612;52.030;113.524;2022-07-09T12:17:38;92098.59;;;17.84
69420;BMP280;56612;52.030;113.524;2022-07-09T12:21:58;92104.97;;;17.75
69420;BMP280;56612;52.030;113.524;2022-07-09T12:26:29;92119.47;;;17.65
69420;BMP280;56612;52.030;113.524;2022-07-09T12:31:16;92128.75;;;17.70
69420;BMP280;56612;52.030;113.524;2022-07-09T12:36:05;92124.53;;;17.75
69420;BMP280;56612;52.030;113.524;2022-07-09T21:21:57;92192.63;;;15.40
69420;BMP280;56612;52.030;113.524;2022-07-09T21:25:02;92194.50;;;15.45
69420;BMP280;56612;52.030;113.524;2022-07-09T21:28:06;92196.47;;;15.47
69420;BMP280;56612;52.030;113.524;2022-07-09T21:31:09;92200.53;;;15.46
69420;BMP280;56612;52.030;113.524;2022-07-09T21:34:13;92202.59;;;15.45
69420;BMP280;56612;52.030;113.524;2022-07-09T21:37:17;92205.13;;;15.52
69420;BMP280;56612;52.030;113.524;2022-07-09T21:40:20;92206.56;;;17.43
69420;BMP280;56612;52.030;113.524;2022-07-09T21:43:24;92208.16;;;16.84
69420;BMP280;56612;52.030;113.524;2022-07-09T21:46:30;92204.97;;;16.22
69420;BMP280;56612;52.030;113.524;2022-07-09T21:49:33;92203.66;;;15.90
69420;BMP280;56612;52.030;113.524;2022-07-09T21:52:37;92199.22;;;15.78
69420;BMP280;56612;52.030;113.524;2022-07-09T21:55:40;92197.09;;;15.80
69420;BMP280;56612;52.030;113.524;2022-07-09T21:58:44;92197.25;;;15.74
69420;BMP280;56612;52.030;113.524;2022-07-09T22:01:49;92201.25;;;15.77
69420;BMP280;56612;52.030;113.524;2022-07-09T22:04:53;92194.41;;;15.80
69420;BMP280;56612;52.030;113.524;2022-07-09T22:07:56;92192.38;;;15.83
69420;BMP280;56612;52.030;113.524;2022-07-09T22:10:59;92194.84;;;15.91
69420;BMP280;56612;52.030;113.524;2022-07-09T22:14:03;92190.66;;;15.98
69420;BMP280;56612;52.030;113.524;2022-07-09T22:17:07;92196.59;;;16.05
69420;BMP280;56612;52.030;113.524;2022-07-09T22:20:10;92193.75;;;16.11
69420;BMP280;56612;52.030;113.524;2022-07-09T22:23:13;92191.31;;;16.56
69420;BMP280;56612;52.030;113.524;2022-07-09T22:26:17;92188.03;;;16.52
69420;BMP280;56612;52.030;113.524;2022-07-09T22:29:20;92185.13;;;16.33
69420;BMP280;56612;52.030;113.524;2022-07-09T22:32:23;92189.25;;;16.30
69420;BMP280;56612;52.030;113.524;2022-07-09T22:35:27;92191.59;;;16.44
69420;BMP280;56612;52.030;113.524;2022-07-09T22:38:30;92187.50;;;16.47
69420;BMP280;56612;52.030;113.524;2022-07-09T22:41:33;92191.28;;;16.59
69420;BMP280;56612;52.030;113.524;2022-07-09T22:44:40;92196.41;;;16.69
69420;BMP280;56612;52.030;113.524;2022-07-09T22:47:44;92193.81;;;16.65
69420;BMP280;56612;52.030;113.524;2022-07-09T22:50:47;92204.16;;;17.08
69420;BMP280;56612;52.030;113.524;2022-07-09T22:53:50;92207.56;;;17.06
69420;BMP280;56612;52.030;113.524;2022-07-09T22:56:57;92202.59;;;16.90
69420;BMP280;56612;52.030;113.524;2022-07-09T23:00:00;92201.31;;;16.87
69420;BMP280;56612;52.030;113.524;2022-07-09T23:03:04;92198.78;;;16.81
69420;BMP280;56612;52.030;113.524;2022-07-09T23:06:08;92203.56;;;16.78
69420;BMP280;56612;52.030;113.524;2022-07-09T23:09:11;92208.91;;;16.80
69420;BMP280;56612;52.030;113.524;2022-07-09T23:12:14;92216.81;;;16.88
69420;BMP280;56612;52.030;113.524;2022-07-09T23:15:19;92218.00;;;16.93
69420;BMP280;56612;52.030;113.524;2022-07-09T23:18:22;92207.97;;;16.90
69420;BMP280;56612;52.030;113.524;2022-07-09T23:21:26;92210.47;;;16.98
69420;BMP280;56612;52.030;113.524;2022-07-09T23:24:29;92213.06;;;17.02
69420;BMP280;56612;52.030;113.524;2022-07-09T23:27:35;92208.31;;;17.03
69420;BMP280;56612;52.030;113.524;2022-07-09T23:30:39;92221.00;;;17.08
69420;BMP280;56612;52.030;113.524;2022-07-09T23:33:43;92207.13;;;17.22
69420;BMP280;56612;52.030;113.524;2022-07-09T23:36:46;92217.50;;;17.37
69420;BMP280;56612;52.030;113.524;2022-07-09T23:39:49;92215.31;;;17.43
69420;BMP280;56612;52.030;113.524;2022-07-09T23:42:53;92218.59;;;17.46
69420;BMP280;56612;52.030;113.524;2022-07-09T23:45:56;92221.81;;;17.52
69420;BMP280;56612;52.030;113.524;2022-07-09T23:49:00;92216.84;;;17.61
69420;BMP280;56612;52.030;113.524;2022-07-09T23:52:04;92223.44;;;17.66
69420;BMP280;56612;52.030;113.524;2022-07-09T23:55:09;92217.81;;;17.74
69420;BMP280;56612;52.030;113.524;2022-07-09T23:58:13;92228.31;;;17.84
